sensor_id;sensor_type;location;lat;lon;timestamp;pressure;altitude;pressure_sealevel;temperature;humidity
59419;BME280;45224;50.904;6.038;2023-05-07T00:00:12;99793.03;;;15.37;94.13
59419;BME280;45224;50.904;6.038;2023-05-07T00:01:45;99792.97;;;15.40;93.66
59419;BME280;45224;50.904;6.038;2023-05-07T00:03:16;99798.16;;;15.40;93.86
59419;BME280;45224;50.904;6.038;2023-05-07T00:04:46;99792.16;;;15.38;93.81
59419;BME280;45224;50.904;6.038;2023-05-07T00:06:17;99800.84;;;15.37;93.53
59419;BME280;45224;50.904;6.038;2023-05-07T00:07:47;99804.28;;;15.39;93.28
59419;BME280;45224;50.904;6.038;2023-05-07T00:09:18;99808.59;;;15.40;92.98
59419;BME280;45224;50.904;6.038;2023-05-07T00:10:48;99800.88;;;15.36;93.02
59419;BME280;45224;50.904;6.038;2023-05-07T00:12:19;99810.38;;;15.38;93.14
59419;BME280;45224;50.904;6.038;2023-05-07T00:13:49;99806.94;;;15.36;92.74
59419;BME280;45224;50.904;6.038;2023-05-07T00:15:20;99794.81;;;15.35;93.23
59419;BME280;45224;50.904;6.038;2023-05-07T00:16:50;99799.34;;;15.25;93.46
59419;BME280;45224;50.904;6.038;2023-05-07T00:18:20;99810.75;;;15.20;94.54
59419;BME280;45224;50.904;6.038;2023-05-07T00:19:52;99800.31;;;15.20;93.71
59419;BME280;45224;50.904;6.038;2023-05-07T00:21:23;99801.19;;;15.19;93.90
59419;BME280;45224;50.904;6.038;2023-05-07T00:22:56;99807.22;;;15.21;93.13
59419;BME280;45224;50.904;6.038;2023-05-07T00:24:27;99802.91;;;15.21;92.94
59419;BME280;45224;50.904;6.038;2023-05-07T00:25:57;99817.66;;;15.21;93.18
59419;BME280;45224;50.904;6.038;2023-05-07T00:27:28;99815.06;;;15.19;93.29
59419;BME280;45224;50.904;6.038;2023-05-07T00:28:58;99812.50;;;15.18;93.21
59419;BME280;45224;50.904;6.038;2023-05-07T00:30:29;99809.06;;;15.15;93.24
59419;BME280;45224;50.904;6.038;2023-05-07T00:31:59;99808.25;;;15.13;93.50
59419;BME280;45224;50.904;6.038;2023-05-07T00:33:30;99809.13;;;15.12;93.07
59419;BME280;45224;50.904;6.038;2023-05-07T00:35:00;99805.63;;;15.13;93.40
59419;BME280;45224;50.904;6.038;2023-05-07T00:36:31;99816.94;;;15.12;93.42
59419;BME280;45224;50.904;6.038;2023-05-07T00:38:01;99807.34;;;15.14;93.12
59419;BME280;45224;50.904;6.038;2023-05-07T00:39:32;99806.56;;;15.09;93.41
59419;BME280;45224;50.904;6.038;2023-05-07T00:41:03;99805.69;;;15.10;93.50
59419;BME280;45224;50.904;6.038;2023-05-07T00:42:33;99805.75;;;15.07;93.95
59419;BME280;45224;50.904;6.038;2023-05-07T00:44:04;99807.47;;;15.08;94.08
59419;BME280;45224;50.904;6.038;2023-05-07T00:45:35;99809.19;;;15.09;93.78
59419;BME280;45224;50.904;6.038;2023-05-07T00:47:05;99792.69;;;15.09;93.52
59419;BME280;45224;50.904;6.038;2023-05-07T00:48:36;99804.78;;;15.11;93.64
59419;BME280;45224;50.904;6.038;2023-05-07T00:50:07;99790.94;;;15.09;93.42
59419;BME280;45224;50.904;6.038;2023-05-07T00:51:38;99793.56;;;15.09;93.82
59419;BME280;45224;50.904;6.038;2023-05-07T00:53:09;99791.91;;;15.05;93.75
59419;BME280;45224;50.904;6.038;2023-05-07T00:54:41;99785.09;;;14.98;94.04
59419;BME280;45224;50.904;6.038;2023-05-07T00:56:11;99783.31;;;15.00;94.10
59419;BME280;45224;50.904;6.038;2023-05-07T00:57:42;99792.88;;;15.00;94.20
59419;BME280;45224;50.904;6.038;2023-05-07T00:59:12;99787.72;;;14.96;94.10
59419;BME280;45224;50.904;6.038;2023-05-07T01:00:43;99790.34;;;14.95;94.20
59419;BME280;45224;50.904;6.038;2023-05-07T01:02:13;99785.19;;;14.92;94.42
59419;BME280;45224;50.904;6.038;2023-05-07T01:03:44;99790.38;;;14.92;94.48
59419;BME280;45224;50.904;6.038;2023-05-07T01:05:17;99783.50;;;14.91;94.80
59419;BME280;45224;50.904;6.038;2023-05-07T01:06:50;99783.50;;;14.91;95.09
59419;BME280;45224;50.904;6.038;2023-05-07T01:08:22;99780.94;;;14.88;95.15
59419;BME280;45224;50.904;6.038;2023-05-07T01:09:53;99783.53;;;14.88;95.21
59419;BME280;45224;50.904;6.038;2023-05-07T01:11:23;99781.75;;;14.90;95.22
59419;BME280;45224;50.904;6.038;2023-05-07T01:12:57;99780.03;;;14.89;95.53
59419;BME280;45224;50.904;6.038;2023-05-07T01:14:28;99768.81;;;14.85;95.57
59419;BME280;45224;50.904;6.038;2023-05-07T01:15:59;99776.66;;;14.84;96.39
59419;BME280;45224;50.904;6.038;2023-05-07T01:17:34;99774.97;;;14.83;96.24
59419;BME280;45224;50.904;6.038;2023-05-07T01:19:05;99780.19;;;14.81;96.00
59419;BME280;45224;50.904;6.038;2023-05-07T01:20:36;99784.53;;;14.79;96.40
59419;BME280;45224;50.904;6.038;2023-05-07T01:22:10;99793.19;;;14.81;96.09
59419;BME280;45224;50.904;6.038;2023-05-07T01:23:54;99778.50;;;14.78;96.22
59419;BME280;45224;50.904;6.038;2023-05-07T01:25:25;99784.56;;;14.77;96.00
59419;BME280;45224;50.904;6.038;2023-05-07T01:26:58;99785.38;;;14.83;95.64
59419;BME280;45224;50.904;6.038;2023-05-07T01:28:29;99776.72;;;14.81;95.93
59419;BME280;45224;50.904;6.038;2023-05-07T01:30:06;99779.25;;;14.84;95.46
59419;BME280;45224;50.904;6.038;2023-05-07T01:31:37;99774.03;;;14.85;95.45
59419;BME280;45224;50.904;6.038;2023-05-07T01:33:09;99776.75;;;14.77;96.81
59419;BME280;45224;50.904;6.038;2023-05-07T01:34:42;99780.22;;;14.79;96.34
59419;BME280;45224;50.904;6.038;2023-05-07T01:36:14;99769.81;;;14.79;95.93
59419;BME280;45224;50.904;6.038;2023-05-07T01:37:46;99762.09;;;14.73;96.41
59419;BME280;45224;50.904;6.038;2023-05-07T01:39:17;99763.03;;;14.69;96.97
59419;BME280;45224;50.904;6.038;2023-05-07T01:40:48;99769.97;;;14.70;97.19
59419;BME280;45224;50.904;6.038;2023-05-07T01:42:19;99758.78;;;14.65;96.83
59419;BME280;45224;50.904;6.038;2023-05-07T01:43:50;99767.34;;;14.70;96.15
59419;BME280;45224;50.904;6.038;2023-05-07T01:45:22;99762.19;;;14.69;96.16
59419;BME280;45224;50.904;6.038;2023-05-07T01:46:54;99766.59;;;14.65;96.34
59419;BME280;45224;50.904;6.038;2023-05-07T01:48:25;99758.81;;;14.64;96.01
59419;BME280;45224;50.904;6.038;2023-05-07T01:49:56;99751.03;;;14.59;95.98
59419;BME280;45224;50.904;6.038;2023-05-07T01:51:27;99759.72;;;14.58;96.01
59419;BME280;45224;50.904;6.038;2023-05-07T01:52:58;99753.66;;;14.57;95.60
59419;BME280;45224;50.904;6.038;2023-05-07T01:54:28;99752.81;;;14.57;95.49
59419;BME280;45224;50.904;6.038;2023-05-07T01:56:00;99751.09;;;14.56;95.30
59419;BME280;45224;50.904;6.038;2023-05-07T01:57:31;99753.72;;;14.54;95.11
59419;BME280;45224;50.904;6.038;2023-05-07T01:59:02;99752.88;;;14.54;95.12
59419;BME280;45224;50.904;6.038;2023-05-07T02:00:32;99752.00;;;14.53;94.89
59419;BME280;45224;50.904;6.038;2023-05-07T02:02:03;99754.66;;;14.50;95.11
59419;BME280;45224;50.904;6.038;2023-05-07T02:03:34;99759.00;;;14.48;95.16
59419;BME280;45224;50.904;6.038;2023-05-07T02:05:14;99754.75;;;14.46;95.04
59419;BME280;45224;50.904;6.038;2023-05-07T02:06:45;99758.22;;;14.45;94.93
59419;BME280;45224;50.904;6.038;2023-05-07T02:08:17;99763.41;;;14.45;94.92
59419;BME280;45224;50.904;6.038;2023-05-07T02:09:47;99754.78;;;14.42;95.13
59419;BME280;45224;50.904;6.038;2023-05-07T02:11:18;99760.00;;;14.42;95.13
59419;BME280;45224;50.904;6.038;2023-05-07T02:12:49;99752.22;;;14.39;95.67
59419;BME280;45224;50.904;6.038;2023-05-07T02:14:19;99753.97;;;14.40;95.44
59419;BME280;45224;50.904;6.038;2023-05-07T02:15:50;99761.69;;;14.43;94.91
59419;BME280;45224;50.904;6.038;2023-05-07T02:17:21;99756.59;;;14.39;95.04
59419;BME280;45224;50.904;6.038;2023-05-07T02:18:52;99754.91;;;14.35;95.12
59419;BME280;45224;50.904;6.038;2023-05-07T02:20:22;99763.56;;;14.35;95.18
59419;BME280;45224;50.904;6.038;2023-05-07T02:21:53;99763.69;;;14.29;95.32
59419;BME280;45224;50.904;6.038;2023-05-07T02:23:24;99772.34;;;14.28;96.05
59419;BME280;45224;50.904;6.038;2023-05-07T02:24:55;99770.63;;;14.27;95.97
59419;BME280;45224;50.904;6.038;2023-05-07T02:26:25;99764.66;;;14.20;96.12
59419;BME280;45224;50.904;6.038;2023-05-07T02:27:56;99769.00;;;14.21;96.11
59419;BME280;45224;50.904;6.038;2023-05-07T02:29:36;99756.88;;;14.19;96.38
59419;BME280;45224;50.904;6.038;2023-05-07T02:31:06;99769.78;;;14.25;96.32
59419;BME280;45224;50.904;6.038;2023-05-07T02:32:37;99775.00;;;14.23;96.50
59419;BME280;45224;50.904;6.038;2023-05-07T02:34:07;99777.63;;;14.22;96.61
59419;BME280;45224;50.904;6.038;2023-05-07T02:35:38;99783.69;;;14.22;96.94
59419;BME280;45224;50.904;6.038;2023-05-07T02:37:09;99778.47;;;14.22;96.83
59419;BME280;45224;50.904;6.038;2023-05-07T02:38:39;99782.00;;;14.20;97.21
59419;BME280;45224;50.904;6.038;2023-05-07T02:40:10;99783.72;;;14.21;96.90
59419;BME280;45224;50.904;6.038;2023-05-07T02:41:41;99780.25;;;14.20;96.83
59419;BME280;45224;50.904;6.038;2023-05-07T02:43:12;99783.78;;;14.18;97.15
59419;BME280;45224;50.904;6.038;2023-05-07T02:44:46;99788.94;;;14.19;97.02
59419;BME280;45224;50.904;6.038;2023-05-07T02:46:17;99777.72;;;14.16;97.21
59419;BME280;45224;50.904;6.038;2023-05-07T02:47:51;99776.03;;;14.15;97.62
59419;BME280;45224;50.904;6.038;2023-05-07T02:49:22;99786.41;;;14.15;97.53
59419;BME280;45224;50.904;6.038;2023-05-07T02:50:52;99774.28;;;14.14;97.58
59419;BME280;45224;50.904;6.038;2023-05-07T02:52:23;99774.34;;;14.11;97.73
59419;BME280;45224;50.904;6.038;2023-05-07T02:53:53;99777.78;;;14.11;97.88
59419;BME280;45224;50.904;6.038;2023-05-07T02:55:25;99770.09;;;14.06;98.03
59419;BME280;45224;50.904;6.038;2023-05-07T02:56:56;99778.69;;;14.10;98.06
59419;BME280;45224;50.904;6.038;2023-05-07T02:58:26;99771.78;;;14.07;98.29
59419;BME280;45224;50.904;6.038;2023-05-07T02:59:57;99777.81;;;14.10;98.51
59419;BME280;45224;50.904;6.038;2023-05-07T03:01:28;99771.81;;;14.06;98.40
59419;BME280;45224;50.904;6.038;2023-05-07T03:03:06;99782.13;;;14.12;98.77
59419;BME280;45224;50.904;6.038;2023-05-07T03:04:36;99781.25;;;14.12;99.09
59419;BME280;45224;50.904;6.038;2023-05-07T03:06:07;99776.88;;;14.15;98.90
59419;BME280;45224;50.904;6.038;2023-05-07T03:07:38;99775.16;;;14.14;98.95
59419;BME280;45224;50.904;6.038;2023-05-07T03:09:08;99776.88;;;14.15;99.21
59419;BME280;45224;50.904;6.038;2023-05-07T03:10:39;99772.53;;;14.16;100.00
59419;BME280;45224;50.904;6.038;2023-05-07T03:12:10;99760.47;;;14.12;99.58
59419;BME280;45224;50.904;6.038;2023-05-07T03:13:40;99768.22;;;14.16;99.22
59419;BME280;45224;50.904;6.038;2023-05-07T03:15:11;99767.28;;;14.19;99.24
59419;BME280;45224;50.904;6.038;2023-05-07T03:16:42;99770.81;;;14.16;100.00
59419;BME280;45224;50.904;6.038;2023-05-07T03:18:13;99765.59;;;14.18;99.52
59419;BME280;45224;50.904;6.038;2023-05-07T03:19:43;99766.44;;;14.18;99.34
59419;BME280;45224;50.904;6.038;2023-05-07T03:21:14;99763.81;;;14.20;99.20
59419;BME280;45224;50.904;6.038;2023-05-07T03:22:45;99756.91;;;14.17;99.19
59419;BME280;45224;50.904;6.038;2023-05-07T03:24:15;99762.06;;;14.20;99.14
59419;BME280;45224;50.904;6.038;2023-05-07T03:25:46;99757.72;;;14.19;99.28
59419;BME280;45224;50.904;6.038;2023-05-07T03:27:16;99749.97;;;14.18;99.41
59419;BME280;45224;50.904;6.038;2023-05-07T03:28:47;99760.28;;;14.22;98.88
59419;BME280;45224;50.904;6.038;2023-05-07T03:30:20;99747.28;;;14.22;98.73
59419;BME280;45224;50.904;6.038;2023-05-07T03:31:51;99759.47;;;14.20;99.27
59419;BME280;45224;50.904;6.038;2023-05-07T03:33:21;99752.53;;;14.19;99.53
59419;BME280;45224;50.904;6.038;2023-05-07T03:34:53;99753.38;;;14.23;98.67
59419;BME280;45224;50.904;6.038;2023-05-07T03:36:24;99745.59;;;14.21;98.76
59419;BME280;45224;50.904;6.038;2023-05-07T03:37:56;99751.63;;;14.22;98.76
59419;BME280;45224;50.904;6.038;2023-05-07T03:39:27;99748.22;;;14.20;99.03
59419;BME280;45224;50.904;6.038;2023-05-07T03:40:58;99744.72;;;14.21;98.98
59419;BME280;45224;50.904;6.038;2023-05-07T03:42:29;99746.47;;;14.19;99.27
59419;BME280;45224;50.904;6.038;2023-05-07T03:43:59;99750.06;;;14.12;100.00
59419;BME280;45224;50.904;6.038;2023-05-07T03:45:30;99752.59;;;14.16;99.42
59419;BME280;45224;50.904;6.038;2023-05-07T03:47:10;99751.72;;;14.16;99.50
59419;BME280;45224;50.904;6.038;2023-05-07T03:48:41;99758.69;;;14.15;99.11
59419;BME280;45224;50.904;6.038;2023-05-07T03:50:11;99755.22;;;14.15;99.07
59419;BME280;45224;50.904;6.038;2023-05-07T03:51:42;99758.69;;;14.15;98.75
59419;BME280;45224;50.904;6.038;2023-05-07T03:53:13;99764.75;;;14.14;99.13
59419;BME280;45224;50.904;6.038;2023-05-07T03:54:43;99762.16;;;14.13;98.95
59419;BME280;45224;50.904;6.038;2023-05-07T03:56:16;99770.88;;;14.12;99.20
59419;BME280;45224;50.904;6.038;2023-05-07T03:57:46;99760.47;;;14.12;98.83
59419;BME280;45224;50.904;6.038;2023-05-07T03:59:17;99767.38;;;14.13;99.00
59419;BME280;45224;50.904;6.038;2023-05-07T04:00:49;99774.28;;;14.14;98.75
59419;BME280;45224;50.904;6.038;2023-05-07T04:02:28;99776.06;;;14.12;99.08
59419;BME280;45224;50.904;6.038;2023-05-07T04:03:59;99779.50;;;14.14;98.99
59419;BME280;45224;50.904;6.038;2023-05-07T04:05:30;99779.50;;;14.14;98.84
59419;BME280;45224;50.904;6.038;2023-05-07T04:07:04;99776.03;;;14.13;99.06
59419;BME280;45224;50.904;6.038;2023-05-07T04:08:40;99774.28;;;14.14;99.04
59419;BME280;45224;50.904;6.038;2023-05-07T04:10:11;99776.06;;;14.12;99.02
59419;BME280;45224;50.904;6.038;2023-05-07T04:11:45;99771.69;;;14.15;98.86
59419;BME280;45224;50.904;6.038;2023-05-07T04:13:16;99774.25;;;14.17;98.99
59419;BME280;45224;50.904;6.038;2023-05-07T04:14:47;99776.00;;;14.16;99.42
59419;BME280;45224;50.904;6.038;2023-05-07T04:16:18;99775.06;;;14.19;99.06
59419;BME280;45224;50.904;6.038;2023-05-07T04:17:48;99768.09;;;14.21;98.99
59419;BME280;45224;50.904;6.038;2023-05-07T04:19:22;99764.69;;;14.19;99.18
59419;BME280;45224;50.904;6.038;2023-05-07T04:20:56;99766.47;;;14.15;99.77
59419;BME280;45224;50.904;6.038;2023-05-07T04:22:27;99764.69;;;14.19;99.73
59419;BME280;45224;50.904;6.038;2023-05-07T04:23:58;99762.94;;;14.19;99.46
59419;BME280;45224;50.904;6.038;2023-05-07T04:25:28;99764.63;;;14.23;99.47
59419;BME280;45224;50.904;6.038;2023-05-07T04:27:05;99760.22;;;14.27;99.43
59419;BME280;45224;50.904;6.038;2023-05-07T04:28:38;99768.78;;;14.32;99.08
59419;BME280;45224;50.904;6.038;2023-05-07T04:30:10;99753.19;;;14.32;98.91
59419;BME280;45224;50.904;6.038;2023-05-07T04:31:43;99766.13;;;14.37;98.93
59419;BME280;45224;50.904;6.038;2023-05-07T04:33:16;99758.28;;;14.40;98.69
59419;BME280;45224;50.904;6.038;2023-05-07T04:34:49;99761.69;;;14.43;98.42
59419;BME280;45224;50.904;6.038;2023-05-07T04:36:19;99759.94;;;14.46;98.26
59419;BME280;45224;50.904;6.038;2023-05-07T04:37:58;99756.44;;;14.47;97.86
59419;BME280;45224;50.904;6.038;2023-05-07T04:39:28;99757.25;;;14.50;97.82
59419;BME280;45224;50.904;6.038;2023-05-07T04:41:04;99756.44;;;14.47;98.03
59419;BME280;45224;50.904;6.038;2023-05-07T04:42:37;99743.44;;;14.47;98.01
59419;BME280;45224;50.904;6.038;2023-05-07T04:44:07;99743.34;;;14.51;97.92
59419;BME280;45224;50.904;6.038;2023-05-07T04:45:39;99763.25;;;14.55;97.75
59419;BME280;45224;50.904;6.038;2023-05-07T04:47:12;99752.88;;;14.54;98.14
59419;BME280;45224;50.904;6.038;2023-05-07T04:48:43;99752.03;;;14.52;98.11
59419;BME280;45224;50.904;6.038;2023-05-07T04:50:15;99751.09;;;14.54;98.37
59419;BME280;45224;50.904;6.038;2023-05-07T04:51:47;99745.94;;;14.53;98.03
59419;BME280;45224;50.904;6.038;2023-05-07T04:53:20;99756.25;;;14.57;97.96
59419;BME280;45224;50.904;6.038;2023-05-07T04:54:53;99757.16;;;14.55;97.76
59419;BME280;45224;50.904;6.038;2023-05-07T04:56:23;99751.09;;;14.56;98.58
59419;BME280;45224;50.904;6.038;2023-05-07T04:57:54;99756.25;;;14.59;98.04
59419;BME280;45224;50.904;6.038;2023-05-07T04:59:26;99742.50;;;14.51;98.44
59419;BME280;45224;50.904;6.038;2023-05-07T05:00:57;99758.84;;;14.59;98.43
59419;BME280;45224;50.904;6.038;2023-05-07T05:02:27;99745.03;;;14.55;97.68
59419;BME280;45224;50.904;6.038;2023-05-07T05:03:58;99760.56;;;14.63;97.81
59419;BME280;45224;50.904;6.038;2023-05-07T05:05:30;99764.84;;;14.64;97.99
59419;BME280;45224;50.904;6.038;2023-05-07T05:07:01;99773.63;;;14.60;98.71
59419;BME280;45224;50.904;6.038;2023-05-07T05:08:34;99767.53;;;14.59;98.51
59419;BME280;45224;50.904;6.038;2023-05-07T05:10:06;99772.72;;;14.61;98.23
59419;BME280;45224;50.904;6.038;2023-05-07T05:11:40;99775.38;;;14.55;98.77
59419;BME280;45224;50.904;6.038;2023-05-07T05:13:10;99779.66;;;14.59;98.31
59419;BME280;45224;50.904;6.038;2023-05-07T05:14:43;99788.31;;;14.61;98.24
59419;BME280;45224;50.904;6.038;2023-05-07T05:16:13;99783.97;;;14.63;98.49
59419;BME280;45224;50.904;6.038;2023-05-07T05:17:44;99789.97;;;14.67;98.26
59419;BME280;45224;50.904;6.038;2023-05-07T05:19:15;99791.75;;;14.65;98.34
59419;BME280;45224;50.904;6.038;2023-05-07T05:20:48;99788.28;;;14.64;98.25
59419;BME280;45224;50.904;6.038;2023-05-07T05:22:19;99797.72;;;14.71;98.78
59419;BME280;45224;50.904;6.038;2023-05-07T05:23:49;99804.69;;;14.68;98.94
59419;BME280;45224;50.904;6.038;2023-05-07T05:25:24;99798.56;;;14.72;98.54
59419;BME280;45224;50.904;6.038;2023-05-07T05:26:55;99800.16;;;14.79;98.32
59419;BME280;45224;50.904;6.038;2023-05-07T05:28:26;99796.69;;;14.80;98.35
59419;BME280;45224;50.904;6.038;2023-05-07T05:29:58;99795.72;;;14.86;98.23
59419;BME280;45224;50.904;6.038;2023-05-07T05:31:29;99799.16;;;14.88;98.34
59419;BME280;45224;50.904;6.038;2023-05-07T05:32:59;99803.53;;;14.86;98.80
59419;BME280;45224;50.904;6.038;2023-05-07T05:34:32;99803.44;;;14.90;98.61
59419;BME280;45224;50.904;6.038;2023-05-07T05:36:04;99806.88;;;14.92;98.39
59419;BME280;45224;50.904;6.038;2023-05-07T05:37:35;99803.34;;;14.95;98.47
59419;BME280;45224;50.904;6.038;2023-05-07T05:39:08;99810.34;;;14.93;98.84
59419;BME280;45224;50.904;6.038;2023-05-07T05:40:38;99805.09;;;14.96;99.16
59419;BME280;45224;50.904;6.038;2023-05-07T05:42:09;99798.34;;;14.86;99.12
59419;BME280;45224;50.904;6.038;2023-05-07T05:43:40;99800.81;;;14.92;99.15
59419;BME280;45224;50.904;6.038;2023-05-07T05:45:10;99811.00;;;15.04;98.37
59419;BME280;45224;50.904;6.038;2023-05-07T05:46:42;99808.28;;;15.12;98.14
59419;BME280;45224;50.904;6.038;2023-05-07T05:48:12;99804.75;;;15.13;97.86
59419;BME280;45224;50.904;6.038;2023-05-07T05:49:43;99811.66;;;15.17;97.88
59419;BME280;45224;50.904;6.038;2023-05-07T05:51:15;99810.09;;;15.08;98.32
59419;BME280;45224;50.904;6.038;2023-05-07T05:52:45;99809.19;;;15.09;99.17
59419;BME280;45224;50.904;6.038;2023-05-07T05:54:16;99808.00;;;15.26;97.96
59419;BME280;45224;50.904;6.038;2023-05-07T05:55:47;99809.00;;;15.19;98.09
59419;BME280;45224;50.904;6.038;2023-05-07T05:57:17;99812.34;;;15.27;97.97
59419;BME280;45224;50.904;6.038;2023-05-07T05:58:49;99813.00;;;15.37;97.82
59419;BME280;45224;50.904;6.038;2023-05-07T06:00:20;99808.59;;;15.40;97.42
59419;BME280;45224;50.904;6.038;2023-05-07T06:02:00;99808.53;;;15.43;97.00
59419;BME280;45224;50.904;6.038;2023-05-07T06:03:31;99806.63;;;15.51;96.86
59419;BME280;45224;50.904;6.038;2023-05-07T06:05:05;99805.59;;;15.60;96.69
59419;BME280;45224;50.904;6.038;2023-05-07T06:06:36;99802.00;;;15.66;96.45
59419;BME280;45224;50.904;6.038;2023-05-07T06:08:07;99804.56;;;15.69;96.72
59419;BME280;45224;50.904;6.038;2023-05-07T06:09:39;99806.06;;;15.81;95.94
59419;BME280;45224;50.904;6.038;2023-05-07T06:11:09;99795.84;;;15.70;94.90
59419;BME280;45224;50.904;6.038;2023-05-07T06:12:43;99800.34;;;15.63;95.55
59419;BME280;45224;50.904;6.038;2023-05-07T06:14:14;99801.06;;;15.70;95.70
59419;BME280;45224;50.904;6.038;2023-05-07T06:15:44;99799.47;;;15.63;95.27
59419;BME280;45224;50.904;6.038;2023-05-07T06:17:17;99800.00;;;15.80;94.79
59419;BME280;45224;50.904;6.038;2023-05-07T06:18:47;99805.22;;;15.80;94.74
59419;BME280;45224;50.904;6.038;2023-05-07T06:20:19;99805.00;;;15.91;94.46
59419;BME280;45224;50.904;6.038;2023-05-07T06:21:50;99802.28;;;15.96;94.58
59419;BME280;45224;50.904;6.038;2023-05-07T06:23:20;99813.53;;;15.98;94.33
59419;BME280;45224;50.904;6.038;2023-05-07T06:24:51;99814.47;;;15.94;94.48
59419;BME280;45224;50.904;6.038;2023-05-07T06:26:21;99790.13;;;15.95;94.60
59419;BME280;45224;50.904;6.038;2023-05-07T06:27:52;99814.22;;;16.06;94.28
59419;BME280;45224;50.904;6.038;2023-05-07T06:29:23;99796.94;;;16.02;93.93
59419;BME280;45224;50.904;6.038;2023-05-07T06:30:53;99815.81;;;16.13;93.78
59419;BME280;45224;50.904;6.038;2023-05-07T06:32:24;99818.28;;;16.18;93.75
59419;BME280;45224;50.904;6.038;2023-05-07T06:33:55;99813.00;;;16.21;93.28
59419;BME280;45224;50.904;6.038;2023-05-07T06:35:29;99814.75;;;16.22;93.89
59419;BME280;45224;50.904;6.038;2023-05-07T06:36:59;99820.66;;;16.29;93.86
59419;BME280;45224;50.904;6.038;2023-05-07T06:38:46;99820.53;;;16.35;93.32
59419;BME280;45224;50.904;6.038;2023-05-07T06:40:16;99814.44;;;16.36;92.71
59419;BME280;45224;50.904;6.038;2023-05-07T06:41:50;99824.81;;;16.37;92.40
59419;BME280;45224;50.904;6.038;2023-05-07T06:43:28;99822.09;;;16.42;92.16
59419;BME280;45224;50.904;6.038;2023-05-07T06:45:16;99826.47;;;16.41;92.66
59419;BME280;45224;50.904;6.038;2023-05-07T06:46:47;99821.13;;;16.46;91.96
59419;BME280;45224;50.904;6.038;2023-05-07T06:48:18;99823.75;;;16.46;92.22
59419;BME280;45224;50.904;6.038;2023-05-07T06:50:02;99826.19;;;16.54;92.15
59419;BME280;45224;50.904;6.038;2023-05-07T06:51:35;99830.38;;;16.59;92.33
59419;BME280;45224;50.904;6.038;2023-05-07T06:53:07;99839.13;;;16.58;92.62
59419;BME280;45224;50.904;6.038;2023-05-07T06:54:38;99832.84;;;16.66;91.98
59419;BME280;45224;50.904;6.038;2023-05-07T06:56:08;99836.34;;;16.65;92.10
59419;BME280;45224;50.904;6.038;2023-05-07T06:57:40;99837.13;;;16.70;91.99
59419;BME280;45224;50.904;6.038;2023-05-07T06:59:11;99838.75;;;16.74;91.75
59419;BME280;45224;50.904;6.038;2023-05-07T07:00:44;99826.50;;;16.76;91.66
59419;BME280;45224;50.904;6.038;2023-05-07T07:02:16;99829.88;;;16.81;91.72
59419;BME280;45224;50.904;6.038;2023-05-07T07:03:47;99835.88;;;16.86;91.19
59419;BME280;45224;50.904;6.038;2023-05-07T07:05:17;99828.75;;;16.91;91.31
59419;BME280;45224;50.904;6.038;2023-05-07T07:06:48;99834.81;;;16.93;91.29
59419;BME280;45224;50.904;6.038;2023-05-07T07:08:18;99829.50;;;16.96;90.69
59419;BME280;45224;50.904;6.038;2023-05-07T07:09:51;99829.63;;;16.92;90.68
59419;BME280;45224;50.904;6.038;2023-05-07T07:11:23;99832.03;;;17.00;90.47
59419;BME280;45224;50.904;6.038;2023-05-07T07:12:53;99838.81;;;17.07;90.23
59419;BME280;45224;50.904;6.038;2023-05-07T07:14:25;99835.22;;;17.11;89.83
59419;BME280;45224;50.904;6.038;2023-05-07T07:15:57;99831.66;;;17.15;89.47
59419;BME280;45224;50.904;6.038;2023-05-07T07:17:28;99828.03;;;17.19;89.08
59419;BME280;45224;50.904;6.038;2023-05-07T07:18:59;99835.72;;;17.25;89.12
59419;BME280;45224;50.904;6.038;2023-05-07T07:20:30;99841.59;;;17.33;88.70
59419;BME280;45224;50.904;6.038;2023-05-07T07:22:01;99827.53;;;17.39;88.20
59419;BME280;45224;50.904;6.038;2023-05-07T07:23:32;99834.25;;;17.48;86.97
59419;BME280;45224;50.904;6.038;2023-05-07T07:25:02;99840.28;;;17.50;85.47
59419;BME280;45224;50.904;6.038;2023-05-07T07:26:33;99841.84;;;17.57;86.32
59419;BME280;45224;50.904;6.038;2023-05-07T07:28:05;99836.56;;;17.59;85.29
59419;BME280;45224;50.904;6.038;2023-05-07T07:29:36;99835.47;;;17.66;85.32
59419;BME280;45224;50.904;6.038;2023-05-07T07:31:07;99840.66;;;17.67;85.19
59419;BME280;45224;50.904;6.038;2023-05-07T07:32:38;99836.06;;;17.76;86.19
59419;BME280;45224;50.904;6.038;2023-05-07T07:34:08;99842.94;;;17.80;86.81
59419;BME280;45224;50.904;6.038;2023-05-07T07:35:39;99835.47;;;17.66;86.75
59419;BME280;45224;50.904;6.038;2023-05-07T07:37:10;99843.88;;;17.77;85.05
59419;BME280;45224;50.904;6.038;2023-05-07T07:38:42;99840.09;;;17.87;85.27
59419;BME280;45224;50.904;6.038;2023-05-07T07:40:14;99844.22;;;17.96;83.78
59419;BME280;45224;50.904;6.038;2023-05-07T07:41:45;99841.34;;;18.05;82.90
59419;BME280;45224;50.904;6.038;2023-05-07T07:43:16;99840.06;;;18.19;82.84
59419;BME280;45224;50.904;6.038;2023-05-07T07:44:47;99838.25;;;18.21;81.13
59419;BME280;45224;50.904;6.038;2023-05-07T07:46:20;99842.41;;;18.28;81.93
59419;BME280;45224;50.904;6.038;2023-05-07T07:47:51;99837.69;;;18.39;81.82
59419;BME280;45224;50.904;6.038;2023-05-07T07:49:21;99843.53;;;18.48;81.69
59419;BME280;45224;50.904;6.038;2023-05-07T07:50:52;99850.97;;;18.60;82.06
59419;BME280;45224;50.904;6.038;2023-05-07T07:52:23;99843.88;;;18.65;80.92
59419;BME280;45224;50.904;6.038;2023-05-07T07:53:53;99849.66;;;18.75;80.80
59419;BME280;45224;50.904;6.038;2023-05-07T07:55:24;99846.75;;;18.83;81.18
59419;BME280;45224;50.904;6.038;2023-05-07T07:56:58;99850.13;;;18.88;80.45
59419;BME280;45224;50.904;6.038;2023-05-07T07:58:29;99844.72;;;18.92;80.80
59419;BME280;45224;50.904;6.038;2023-05-07T07:59:59;99854.06;;;19.01;79.18
59419;BME280;45224;50.904;6.038;2023-05-07T08:01:31;99854.84;;;19.03;78.71
59419;BME280;45224;50.904;6.038;2023-05-07T08:03:02;99850.41;;;19.05;78.13
59419;BME280;45224;50.904;6.038;2023-05-07T08:04:37;99853.75;;;19.10;77.54